createdAt,value
2023-02-06T00:03:25.836Z,81.13
2023-02-06T00:08:28.724Z,80.35
2023-02-06T00:13:36.736Z,81.48
2023-02-06T00:18:38.692Z,82.17
2023-02-06T00:23:41.865Z,82.70
2023-02-06T00:28:44.767Z,82.76
2023-02-06T00:33:47.349Z,82.54
2023-02-06T00:38:52.522Z,82.67
2023-02-06T00:43:55.182Z,82.51
2023-02-06T00:48:58.948Z,82.16
2023-02-06T00:54:01.247Z,81.78
2023-02-06T00:59:04.026Z,81.32
2023-02-06T01:04:07.176Z,80.99
2023-02-06T01:09:13.341Z,79.98
2023-02-06T01:14:15.948Z,80.46
2023-02-06T01:19:21.483Z,82.07
2023-02-06T01:24:26.502Z,81.38
2023-02-06T01:29:28.810Z,79.04
2023-02-06T01:34:46.219Z,79.66
2023-02-06T01:39:48.686Z,78.58
2023-02-06T01:45:20.242Z,81.48
2023-02-06T01:50:22.929Z,79.60
2023-02-06T01:55:24.978Z,79.26
2023-02-06T02:00:27.290Z,80.51
2023-02-06T02:05:29.994Z,80.31
2023-02-06T02:10:33.363Z,79.41
2023-02-06T02:15:49.289Z,80.21
2023-02-06T02:21:35.287Z,79.86
2023-02-06T02:26:56.776Z,79.53
2023-02-06T02:32:35.858Z,81.83
2023-02-06T02:38:03.722Z,81.95
2023-02-06T02:43:20.369Z,81.68
2023-02-06T02:48:40.917Z,80.98
2023-02-06T02:53:43.227Z,80.93
2023-02-06T02:58:50.483Z,82.51
2023-02-06T03:03:57.589Z,81.26
2023-02-06T03:09:26.232Z,78.77
2023-02-06T03:14:39.313Z,78.27
2023-02-06T03:19:52.338Z,77.27
2023-02-06T03:24:59.077Z,77.05
2023-02-06T03:30:03.830Z,76.50
2023-02-06T03:35:17.802Z,76.73
2023-02-06T03:40:20.975Z,77.87
2023-02-06T03:45:27.185Z,78.59
2023-02-06T03:50:31.940Z,78.53
2023-02-06T03:55:37.133Z,81.04
2023-02-06T04:00:41.701Z,81.58
2023-02-06T04:05:43.622Z,82.05
2023-02-06T04:10:45.674Z,80.83
2023-02-06T04:15:48.018Z,81.05
2023-02-06T04:20:53.084Z,81.30
2023-02-06T04:25:55.023Z,83.05
2023-02-06T04:30:57.254Z,82.85
2023-02-06T04:35:59.340Z,82.58
2023-02-06T04:41:03.485Z,81.60
2023-02-06T04:46:05.855Z,81.01
2023-02-06T04:51:08.442Z,79.72
2023-02-06T04:56:12.193Z,80.60
2023-02-06T05:01:16.788Z,81.52
2023-02-06T05:06:22.573Z,81.34
2023-02-06T05:11:26.807Z,82.21
2023-02-06T05:16:29.063Z,80.12
2023-02-06T05:21:31.170Z,77.98
2023-02-06T05:26:33.610Z,79.72
2023-02-06T05:31:36.304Z,78.62
2023-02-06T05:36:38.903Z,77.52
2023-02-06T05:41:40.962Z,77.52
2023-02-06T05:46:44.207Z,78.54
2023-02-06T05:51:47.039Z,78.48
2023-02-06T05:56:49.032Z,78.53
2023-02-06T06:01:51.059Z,80.18
2023-02-06T06:06:56.657Z,79.36
2023-02-06T06:11:58.918Z,82.04
2023-02-06T06:17:01.816Z,81.87
2023-02-06T06:22:06.097Z,80.88
2023-02-06T06:27:10.676Z,82.02
2023-02-06T06:32:13.539Z,81.20
2023-02-06T06:37:15.723Z,81.53
2023-02-06T06:42:18.299Z,82.45
2023-02-06T06:47:20.474Z,81.49
2023-02-06T06:52:25.556Z,79.68
2023-02-06T06:57:32.690Z,81.66
2023-02-06T07:02:37.686Z,81.21
2023-02-06T07:07:39.847Z,80.72
2023-02-06T07:12:42.041Z,81.49
2023-02-06T07:17:44.022Z,81.83
2023-02-06T07:22:47.904Z,80.40
2023-02-06T07:27:49.941Z,79.20
2023-02-06T07:32:52.079Z,79.01
2023-02-06T07:37:54.228Z,77.80
2023-02-06T07:42:56.890Z,79.97
2023-02-06T07:48:04.350Z,77.95
2023-02-06T07:53:07.794Z,78.73
2023-02-06T07:58:13.149Z,80.08
2023-02-06T08:03:18.077Z,77.18
2023-02-06T08:08:25.197Z,77.18
2023-02-06T08:13:28.390Z,76.93
2023-02-06T08:18:30.356Z,77.29
2023-02-06T08:23:32.980Z,77.42
2023-02-06T08:28:35.930Z,78.03
2023-02-06T08:33:38.382Z,77.75
2023-02-06T08:38:42.348Z,78.22
2023-02-06T08:43:48.870Z,77.86
2023-02-06T08:49:17.363Z,77.73
2023-02-06T08:54:22.079Z,77.54
2023-02-06T08:59:24.574Z,76.66
2023-02-06T09:04:31.793Z,76.03
2023-02-06T09:09:37.201Z,75.18
2023-02-06T09:14:39.712Z,76.23
2023-02-06T09:19:42.190Z,74.64
2023-02-06T09:24:47.194Z,72.09
2023-02-06T09:29:52.654Z,72.40
2023-02-06T09:35:01.237Z,74.27
2023-02-06T09:40:06.364Z,75.22
2023-02-06T09:45:26.294Z,72.21
2023-02-06T09:51:06.174Z,72.56
2023-02-06T09:56:24.491Z,69.80
2023-02-06T10:01:38.760Z,69.13
2023-02-06T10:06:54.001Z,68.71
2023-02-06T10:12:18.203Z,70.19
2023-02-06T10:17:26.063Z,69.26
2023-02-06T10:22:54.872Z,69.56
2023-02-06T10:28:06.693Z,68.05
2023-02-06T10:33:26.187Z,68.45
2023-02-06T10:38:55.902Z,69.60
2023-02-06T10:44:16.984Z,74.10
2023-02-06T10:49:40.862Z,69.42
2023-02-06T10:54:52.121Z,72.33
2023-02-06T10:59:59.525Z,69.98
2023-02-06T11:05:09.846Z,70.74
2023-02-06T11:10:18.301Z,72.31
2023-02-06T11:15:46.949Z,70.13
2023-02-06T11:20:51.319Z,69.26
2023-02-06T11:26:19.725Z,69.18
2023-02-06T11:31:45.688Z,71.81
2023-02-06T11:36:52.949Z,70.37
2023-02-06T11:42:03.585Z,73.06
2023-02-06T11:47:28.575Z,71.59
2023-02-06T11:52:34.480Z,68.91
2023-02-06T11:57:36.318Z,69.97
2023-02-06T12:02:51.168Z,71.48
2023-02-06T12:08:05.376Z,68.58
2023-02-06T12:13:28.728Z,64.71
2023-02-06T12:18:39.728Z,69.79
2023-02-06T12:23:56.308Z,70.02
2023-02-06T12:29:16.946Z,68.43
2023-02-06T12:34:24.568Z,64.81
2023-02-06T12:39:32.633Z,67.46
2023-02-06T12:44:47.125Z,65.52
2023-02-06T12:50:34.763Z,66.07
2023-02-06T12:55:45.238Z,62.94
2023-02-06T13:01:01.379Z,61.09
2023-02-06T13:06:21.216Z,64.47
2023-02-06T13:11:28.838Z,63.14
2023-02-06T13:17:21.492Z,66.40
2023-02-06T13:22:45.083Z,61.81
2023-02-06T13:28:14.524Z,64.40
2023-02-06T13:33:43.924Z,66.34
2023-02-06T13:39:46.533Z,63.00
2023-02-06T13:44:55.020Z,62.31
2023-02-06T13:50:53.790Z,62.51
2023-02-06T13:56:39.349Z,60.94
2023-02-06T14:01:53.556Z,64.77
2023-02-06T14:07:21.962Z,64.50
2023-02-06T14:13:16.753Z,64.50
2023-02-06T14:18:40.491Z,68.96
2023-02-06T14:24:14.146Z,62.89
2023-02-06T14:30:02.586Z,61.35
2023-02-06T14:35:25.125Z,63.71
2023-02-06T14:40:31.242Z,63.31
2023-02-06T14:46:06.258Z,62.18
2023-02-06T14:51:39.491Z,63.75
2023-02-06T14:56:47.966Z,65.68
2023-02-06T15:01:56.839Z,67.44
2023-02-06T15:07:36.253Z,67.99
2023-02-06T15:12:39.033Z,64.63
2023-02-06T15:17:55.187Z,68.84
2023-02-06T15:23:17.227Z,69.93
2023-02-06T15:28:25.720Z,67.55
2023-02-06T15:33:32.466Z,71.26
2023-02-06T15:38:34.946Z,72.73
2023-02-06T15:43:46.965Z,71.18
2023-02-06T15:48:53.872Z,70.75
2023-02-06T15:54:22.845Z,76.74
2023-02-06T15:59:26.780Z,79.19
2023-02-06T16:04:39.741Z,80.29
2023-02-06T16:09:53.645Z,80.69
2023-02-06T16:15:00.544Z,80.85
2023-02-06T16:20:26.947Z,81.56
2023-02-06T16:25:31.500Z,81.98
2023-02-06T16:30:36.307Z,81.80
2023-02-06T16:35:39.079Z,82.00
2023-02-06T16:40:41.615Z,82.27
2023-02-06T16:45:43.485Z,82.98
2023-02-06T16:50:47.537Z,83.27
2023-02-06T16:55:50.472Z,83.35
2023-02-06T17:00:52.884Z,83.60
2023-02-06T17:05:54.953Z,83.75
2023-02-06T17:10:56.774Z,83.86
2023-02-06T17:15:58.847Z,83.96
2023-02-06T17:21:00.849Z,84.02
2023-02-06T17:26:02.694Z,84.00
2023-02-06T17:31:04.665Z,84.19
2023-02-06T17:36:11.415Z,84.33
2023-02-06T17:41:13.570Z,84.48
2023-02-06T17:46:16.946Z,84.67
2023-02-06T17:51:18.803Z,84.85
2023-02-06T17:56:21.001Z,85.01
2023-02-06T18:01:24.086Z,85.19
2023-02-06T18:06:26.700Z,85.40
2023-02-06T18:11:29.042Z,85.46
2023-02-06T18:16:31.998Z,85.63
2023-02-06T18:21:33.837Z,85.77
2023-02-06T18:26:35.917Z,85.83
2023-02-06T18:31:37.804Z,85.93
2023-02-06T18:36:40.056Z,86.07
2023-02-06T18:42:00.904Z,86.28
2023-02-06T18:47:02.658Z,87.73
2023-02-06T18:52:05.112Z,88.46
2023-02-06T18:57:07.350Z,88.45
2023-02-06T19:02:11.971Z,88.55
2023-02-06T19:07:13.884Z,88.42
2023-02-06T19:12:15.690Z,88.17
2023-02-06T19:17:17.532Z,87.69
2023-02-06T19:22:19.649Z,87.36
2023-02-06T19:27:22.168Z,87.10
2023-02-06T19:32:26.361Z,86.87
2023-02-06T19:37:28.152Z,86.79
2023-02-06T19:42:30.044Z,86.69
2023-02-06T19:47:32.182Z,86.58
2023-02-06T19:52:35.532Z,86.32
2023-02-06T19:57:39.592Z,86.42
2023-02-06T20:02:41.986Z,86.35
2023-02-06T20:07:44.115Z,86.55
2023-02-06T20:12:47.012Z,86.60
2023-02-06T20:17:51.277Z,86.56
2023-02-06T20:22:53.291Z,86.41
2023-02-06T20:27:55.116Z,86.28
2023-02-06T20:32:57.330Z,86.33
2023-02-06T20:37:59.370Z,86.39
2023-02-06T20:43:01.256Z,86.43
2023-02-06T20:48:03.346Z,86.48
2023-02-06T20:53:06.079Z,86.47
2023-02-06T20:58:10.678Z,86.48
2023-02-06T21:03:13.154Z,86.43
2023-02-06T21:08:14.954Z,86.39
2023-02-06T21:13:17.809Z,86.23
2023-02-06T21:18:20.402Z,86.25
2023-02-06T21:23:24.228Z,86.35
2023-02-06T21:28:26.475Z,86.40
2023-02-06T21:33:28.626Z,86.47
2023-02-06T21:38:30.631Z,86.58
2023-02-06T21:43:32.944Z,86.59
2023-02-06T21:48:35.975Z,86.76
2023-02-06T21:53:38.695Z,86.57
2023-02-06T21:58:40.655Z,86.14
2023-02-06T22:03:44.623Z,85.07
2023-02-06T22:08:51.733Z,84.09
2023-02-06T22:14:01.395Z,84.99
2023-02-06T22:19:04.394Z,85.37
2023-02-06T22:24:07.779Z,85.61
2023-02-06T22:29:15.993Z,85.75
2023-02-06T22:34:20.811Z,85.94
2023-02-06T22:39:22.864Z,86.09
2023-02-06T22:44:24.727Z,86.19
2023-02-06T22:49:26.506Z,86.07
2023-02-06T22:54:28.369Z,85.36
2023-02-06T22:59:30.265Z,83.99
2023-02-06T23:04:36.162Z,83.93
2023-02-06T23:09:38.931Z,84.71
2023-02-06T23:14:40.729Z,85.08
2023-02-06T23:19:42.514Z,85.01
2023-02-06T23:24:44.417Z,83.18
2023-02-06T23:29:46.782Z,81.60
2023-02-06T23:34:48.648Z,81.75
2023-02-06T23:39:50.537Z,82.37
2023-02-06T23:44:52.288Z,82.12
2023-02-06T23:49:54.115Z,80.77
2023-02-06T23:54:55.887Z,80.20
2023-02-06T23:59:57.724Z,82.46
